createdAt,value
2018-04-25T00:00:00.224Z,19.57
2018-04-25T00:01:00.440Z,19.56
2018-04-25T00:02:00.351Z,19.6
2018-04-25T00:03:00.256Z,19.57
2018-04-25T00:04:00.311Z,19.56
2018-04-25T00:05:00.356Z,19.59
2018-04-25T00:06:00.232Z,19.56
2018-04-25T00:07:00.400Z,19.55
2018-04-25T00:08:00.199Z,19.59
2018-04-25T00:09:00.377Z,19.55
2018-04-25T00:10:00.238Z,19.54
2018-04-25T00:11:00.440Z,19.58
2018-04-25T00:12:00.297Z,19.56
2018-04-25T00:13:00.417Z,19.55
2018-04-25T00:14:00.462Z,19.57
2018-04-25T00:15:00.376Z,19.55
2018-04-25T00:16:00.355Z,19.55
2018-04-25T00:17:00.405Z,19.58
2018-04-25T00:18:00.225Z,19.54
2018-04-25T00:19:00.462Z,19.53
2018-04-25T00:20:00.278Z,19.57
2018-04-25T00:21:00.416Z,19.53
2018-04-25T00:22:00.246Z,19.53
2018-04-25T00:23:00.248Z,19.56
2018-04-25T00:24:00.388Z,19.54
2018-04-25T00:25:00.355Z,19.53
2018-04-25T00:26:00.411Z,19.55
2018-04-25T00:27:00.439Z,19.54
2018-04-25T00:28:00.333Z,19.53
2018-04-25T00:29:00.194Z,19.56
2018-04-25T00:30:00.386Z,19.55
2018-04-25T00:31:00.313Z,19.54
2018-04-25T00:32:00.349Z,19.56
2018-04-25T00:33:00.240Z,19.53
2018-04-25T00:34:00.281Z,19.52
2018-04-25T00:35:00.330Z,19.55
2018-04-25T00:36:00.250Z,19.52
2018-04-25T00:37:00.273Z,19.52
2018-04-25T00:38:00.479Z,19.54
2018-04-25T00:39:00.622Z,19.53
2018-04-25T00:40:00.239Z,19.52
2018-04-25T00:41:00.221Z,19.55
2018-04-25T00:42:00.231Z,19.52
2018-04-25T00:43:00.594Z,19.52
2018-04-25T00:44:00.347Z,19.54
2018-04-25T00:45:00.414Z,19.52
2018-04-25T00:46:00.389Z,19.51
2018-04-25T00:47:00.211Z,19.54
2018-04-25T00:48:00.569Z,19.51
2018-04-25T00:49:00.438Z,19.51
2018-04-25T00:50:00.306Z,19.54
2018-04-25T00:51:00.250Z,19.52
2018-04-25T00:52:00.362Z,19.5
2018-04-25T00:53:00.349Z,19.53
2018-04-25T00:54:00.653Z,19.51
2018-04-25T00:55:00.478Z,19.5
2018-04-25T00:56:00.187Z,19.53
2018-04-25T00:57:00.430Z,19.51
2018-04-25T00:58:00.441Z,19.49
2018-04-25T00:59:00.446Z,19.53
2018-04-25T01:00:00.375Z,19.5
2018-04-25T01:01:00.469Z,19.51
2018-04-25T01:02:00.342Z,19.53
2018-04-25T01:03:00.282Z,19.5
2018-04-25T01:04:00.405Z,19.5
2018-04-25T01:05:00.294Z,19.53
2018-04-25T01:06:00.234Z,19.5
2018-04-25T01:07:00.322Z,19.5
2018-04-25T01:08:00.237Z,19.53
2018-04-25T01:09:00.494Z,19.51
2018-04-25T01:10:00.312Z,19.5
2018-04-25T01:11:00.328Z,19.53
2018-04-25T01:12:00.347Z,19.5
2018-04-25T01:13:00.395Z,19.49
2018-04-25T01:14:00.236Z,19.52
2018-04-25T01:15:00.340Z,19.49
2018-04-25T01:16:00.384Z,19.49
2018-04-25T01:17:00.233Z,19.52
2018-04-25T01:18:00.391Z,19.5
2018-04-25T01:19:00.342Z,19.49
2018-04-25T01:20:00.379Z,19.51
2018-04-25T01:21:00.382Z,19.5
2018-04-25T01:22:00.340Z,19.49
2018-04-25T01:23:00.322Z,19.52
2018-04-25T01:24:00.269Z,19.5
2018-04-25T01:25:00.370Z,19.48
2018-04-25T01:26:00.331Z,19.51
2018-04-25T01:27:00.385Z,19.48
2018-04-25T01:28:00.384Z,19.48
2018-04-25T01:29:00.155Z,19.51
2018-04-25T01:30:00.277Z,19.48
2018-04-25T01:31:00.124Z,19.48
2018-04-25T01:32:00.345Z,19.51
2018-04-25T01:33:00.173Z,19.48
2018-04-25T01:34:00.141Z,19.48
2018-04-25T01:35:00.249Z,19.5
2018-04-25T01:36:00.296Z,19.48
2018-04-25T01:37:00.192Z,19.47
2018-04-25T01:38:00.400Z,19.5
2018-04-25T01:39:00.406Z,19.47
2018-04-25T01:40:00.361Z,19.47
2018-04-25T01:41:00.145Z,19.49
2018-04-25T01:42:00.411Z,19.46
2018-04-25T01:43:00.331Z,19.46
2018-04-25T01:44:00.282Z,19.49
2018-04-25T01:45:00.411Z,19.46
2018-04-25T01:46:00.251Z,19.45
2018-04-25T01:47:00.368Z,19.49
2018-04-25T01:48:00.324Z,19.47
2018-04-25T01:49:00.677Z,19.46
2018-04-25T01:50:00.242Z,19.5
2018-04-25T01:51:00.386Z,19.47
2018-04-25T01:52:00.184Z,19.46
2018-04-25T01:53:00.265Z,19.49
2018-04-25T01:54:00.215Z,19.45
2018-04-25T01:55:00.397Z,19.45
2018-04-25T01:56:00.166Z,19.49
2018-04-25T01:57:00.423Z,19.46
2018-04-25T01:58:00.218Z,19.45
2018-04-25T01:59:00.310Z,19.49
2018-04-25T02:00:00.387Z,19.45
2018-04-25T02:01:00.379Z,19.44
2018-04-25T02:02:00.275Z,19.48
2018-04-25T02:03:00.305Z,19.45
2018-04-25T02:04:00.239Z,19.44
2018-04-25T02:05:00.345Z,19.48
2018-04-25T02:06:00.166Z,19.45
2018-04-25T02:07:00.303Z,19.45
2018-04-25T02:08:00.323Z,19.48
2018-04-25T02:09:00.399Z,19.45
2018-04-25T02:10:00.406Z,19.45
2018-04-25T02:11:00.406Z,19.48
2018-04-25T02:12:00.340Z,19.45
2018-04-25T02:13:00.293Z,19.46
2018-04-25T02:14:00.407Z,19.48
2018-04-25T02:15:00.207Z,19.44
2018-04-25T02:16:00.322Z,19.44
2018-04-25T02:17:00.253Z,19.47
2018-04-25T02:18:00.356Z,19.44
2018-04-25T02:19:00.619Z,19.43
2018-04-25T02:20:00.208Z,19.47
2018-04-25T02:21:00.175Z,19.46
2018-04-25T02:22:00.306Z,19.44
2018-04-25T02:23:00.311Z,19.47
2018-04-25T02:24:00.358Z,19.44
2018-04-25T02:25:00.385Z,19.45
2018-04-25T02:26:00.383Z,19.47
2018-04-25T02:27:00.192Z,19.45
2018-04-25T02:28:00.330Z,19.43
2018-04-25T02:29:00.428Z,19.47
2018-04-25T02:30:00.237Z,19.43
2018-04-25T02:31:00.227Z,19.44
2018-04-25T02:32:00.356Z,19.46
2018-04-25T02:33:00.216Z,19.43
2018-04-25T02:34:00.180Z,19.43
2018-04-25T02:35:00.380Z,19.46
2018-04-25T02:36:00.194Z,19.43
2018-04-25T02:37:00.258Z,19.43
2018-04-25T02:38:00.313Z,19.46
2018-04-25T02:39:00.267Z,19.43
2018-04-25T02:40:00.342Z,19.43
2018-04-25T02:41:00.553Z,19.45
2018-04-25T02:42:00.221Z,19.43
2018-04-25T02:43:00.289Z,19.43
2018-04-25T02:44:00.206Z,19.45
2018-04-25T02:45:00.237Z,19.43
2018-04-25T02:46:00.178Z,19.42
2018-04-25T02:47:00.260Z,19.46
2018-04-25T02:48:00.345Z,19.43
2018-04-25T02:49:00.306Z,19.43
2018-04-25T02:50:00.235Z,19.46
2018-04-25T02:51:00.215Z,19.42
2018-04-25T02:52:00.393Z,19.42
2018-04-25T02:53:00.285Z,19.45
2018-04-25T02:54:00.379Z,19.44
2018-04-25T02:55:00.407Z,19.43
2018-04-25T02:56:00.216Z,19.46
2018-04-25T02:57:00.180Z,19.42
2018-04-25T02:58:00.335Z,19.42
2018-04-25T02:59:00.382Z,19.44
2018-04-25T03:00:00.207Z,19.41
2018-04-25T03:01:00.418Z,19.41
2018-04-25T03:02:00.195Z,19.45
2018-04-25T03:03:00.303Z,19.42
2018-04-25T03:04:00.283Z,19.41
2018-04-25T03:05:00.414Z,19.44
2018-04-25T03:06:00.316Z,19.4
2018-04-25T03:07:00.234Z,19.41
2018-04-25T03:08:00.217Z,19.43
2018-04-25T03:09:00.250Z,19.42
2018-04-25T03:10:00.301Z,19.41
2018-04-25T03:11:00.503Z,19.44
2018-04-25T03:12:00.187Z,19.41
2018-04-25T03:13:00.229Z,19.4
2018-04-25T03:14:00.341Z,19.44
2018-04-25T03:15:00.231Z,19.41
2018-04-25T03:16:00.341Z,19.4
2018-04-25T03:17:00.291Z,19.44
2018-04-25T03:18:00.260Z,19.41
2018-04-25T03:19:00.415Z,19.4
2018-04-25T03:20:00.199Z,19.43
2018-04-25T03:21:00.388Z,19.4
2018-04-25T03:22:00.420Z,19.4
2018-04-25T03:23:00.192Z,19.43
2018-04-25T03:24:00.183Z,19.4
2018-04-25T03:25:00.180Z,19.4
2018-04-25T03:26:00.183Z,19.43
2018-04-25T03:27:00.320Z,19.41
2018-04-25T03:28:00.367Z,19.4
2018-04-25T03:29:00.366Z,19.42
2018-04-25T03:30:00.187Z,19.4
2018-04-25T03:31:00.375Z,19.39
2018-04-25T03:32:00.363Z,19.42
2018-04-25T03:33:00.352Z,19.4
2018-04-25T03:34:00.272Z,19.39
2018-04-25T03:35:00.423Z,19.42
2018-04-25T03:36:00.208Z,19.39
2018-04-25T03:37:00.361Z,19.38
2018-04-25T03:38:00.282Z,19.41
2018-04-25T03:39:00.331Z,19.39
2018-04-25T03:40:00.242Z,19.38
2018-04-25T03:41:00.219Z,19.41
2018-04-25T03:42:00.291Z,19.39
2018-04-25T03:43:00.300Z,19.38
2018-04-25T03:44:00.150Z,19.41
2018-04-25T03:45:00.209Z,19.39
2018-04-25T03:46:00.227Z,19.37
2018-04-25T03:47:00.412Z,19.41
2018-04-25T03:48:00.315Z,19.39
2018-04-25T03:49:00.362Z,19.38
2018-04-25T03:50:00.209Z,19.41
2018-04-25T03:51:00.350Z,19.38
2018-04-25T03:52:00.298Z,19.38
2018-04-25T03:53:00.189Z,19.4
2018-04-25T03:54:00.358Z,19.37
2018-04-25T03:55:00.384Z,19.38
2018-04-25T03:56:00.193Z,19.4
2018-04-25T03:57:00.373Z,19.38
2018-04-25T03:58:00.375Z,19.38
2018-04-25T03:59:00.224Z,19.41
2018-04-25T04:00:00.296Z,19.38
2018-04-25T04:01:00.152Z,19.37
2018-04-25T04:02:00.188Z,19.4
2018-04-25T04:03:00.259Z,19.38
2018-04-25T04:04:00.350Z,19.37
2018-04-25T04:05:00.166Z,19.4
2018-04-25T04:06:00.155Z,19.37
2018-04-25T04:07:00.353Z,19.37
2018-04-25T04:08:00.283Z,19.4
2018-04-25T04:09:00.350Z,19.38
2018-04-25T04:10:00.180Z,19.38
2018-04-25T04:11:00.166Z,19.4
2018-04-25T04:12:00.327Z,19.38
2018-04-25T04:13:00.419Z,19.37
2018-04-25T04:14:00.221Z,19.4
2018-04-25T04:15:00.227Z,19.37
2018-04-25T04:16:00.422Z,19.37
2018-04-25T04:17:00.227Z,19.4
2018-04-25T04:18:00.306Z,19.39
2018-04-25T04:19:00.191Z,19.38
2018-04-25T04:20:00.240Z,19.4
2018-04-25T04:21:00.232Z,19.38
2018-04-25T04:22:00.247Z,19.37
2018-04-25T04:23:00.360Z,19.4
2018-04-25T04:24:00.262Z,19.37
2018-04-25T04:25:00.155Z,19.37
2018-04-25T04:26:00.197Z,19.39
2018-04-25T04:27:00.265Z,19.37
2018-04-25T04:28:00.351Z,19.37
2018-04-25T04:29:00.348Z,19.4
2018-04-25T04:30:00.228Z,19.37
2018-04-25T04:31:00.353Z,19.37
2018-04-25T04:32:00.244Z,19.4
2018-04-25T04:33:00.171Z,19.38
2018-04-25T04:34:00.173Z,19.36
2018-04-25T04:35:00.311Z,19.39
2018-04-25T04:36:00.258Z,19.37
2018-04-25T04:37:00.156Z,19.38
2018-04-25T04:38:00.323Z,19.4
2018-04-25T04:39:00.349Z,19.38
2018-04-25T04:40:00.137Z,19.37
2018-04-25T04:41:00.350Z,19.4
2018-04-25T04:42:00.293Z,19.37
2018-04-25T04:43:00.219Z,19.38
2018-04-25T04:44:00.364Z,19.4
2018-04-25T04:45:00.218Z,19.37
2018-04-25T04:46:00.265Z,19.36
2018-04-25T04:47:00.287Z,19.4
2018-04-25T04:48:00.247Z,19.36
2018-04-25T04:49:00.333Z,19.35
2018-04-25T04:50:00.414Z,19.39
2018-04-25T04:51:00.229Z,19.37
2018-04-25T04:52:00.267Z,19.36
2018-04-25T04:53:00.525Z,19.38
2018-04-25T04:54:00.269Z,19.37
2018-04-25T04:55:00.377Z,19.36
2018-04-25T04:56:00.247Z,19.39
2018-04-25T04:57:00.347Z,19.36
2018-04-25T04:58:00.285Z,19.35
2018-04-25T04:59:00.249Z,19.39
2018-04-25T05:00:00.164Z,19.36
2018-04-25T05:01:00.330Z,19.35
2018-04-25T05:02:00.328Z,19.38
2018-04-25T05:03:00.561Z,19.36
2018-04-25T05:04:00.355Z,19.35
2018-04-25T05:05:00.293Z,19.39
2018-04-25T05:06:00.212Z,19.36
2018-04-25T05:07:00.302Z,19.34
2018-04-25T05:08:00.282Z,19.38
2018-04-25T05:09:00.212Z,19.36
2018-04-25T05:10:00.218Z,19.34
2018-04-25T05:11:00.245Z,19.38
2018-04-25T05:12:00.313Z,19.35
2018-04-25T05:13:00.338Z,19.34
2018-04-25T05:14:00.250Z,19.37
2018-04-25T05:15:00.261Z,19.35
2018-04-25T05:16:00.271Z,19.35
2018-04-25T05:17:00.287Z,19.38
2018-04-25T05:18:00.281Z,19.34
2018-04-25T05:19:00.288Z,19.35
2018-04-25T05:20:00.304Z,19.38
2018-04-25T05:21:00.331Z,19.34
2018-04-25T05:22:00.309Z,19.34
2018-04-25T05:23:00.394Z,19.38
2018-04-25T05:24:00.403Z,19.37
2018-04-25T05:25:00.330Z,19.35
2018-04-25T05:26:00.338Z,19.38
2018-04-25T05:27:00.195Z,19.36
2018-04-25T05:28:00.346Z,19.34
2018-04-25T05:29:00.333Z,19.38
2018-04-25T05:30:00.283Z,19.33
2018-04-25T05:31:00.243Z,19.34
2018-04-25T05:32:00.201Z,19.38
2018-04-25T05:33:00.121Z,19.35
2018-04-25T05:34:00.508Z,19.35
2018-04-25T05:35:00.254Z,19.39
2018-04-25T05:36:00.254Z,19.35
2018-04-25T05:37:00.284Z,19.34
2018-04-25T05:38:00.254Z,19.38
2018-04-25T05:39:00.284Z,19.34
2018-04-25T05:40:00.249Z,19.33
2018-04-25T05:41:00.190Z,19.38
2018-04-25T05:42:00.219Z,19.34
2018-04-25T05:43:00.247Z,19.34
2018-04-25T05:44:00.111Z,19.38
2018-04-25T05:45:00.217Z,19.34
2018-04-25T05:46:00.254Z,19.33
2018-04-25T05:47:00.351Z,19.37
2018-04-25T05:48:00.433Z,19.33
2018-04-25T05:49:00.362Z,19.33
2018-04-25T05:50:00.383Z,19.37
2018-04-25T05:51:00.195Z,19.33
2018-04-25T05:52:00.221Z,19.31
2018-04-25T05:53:00.109Z,19.38
2018-04-25T05:54:00.292Z,19.37
2018-04-25T05:55:00.181Z,19.39
2018-04-25T05:56:00.252Z,19.43
2018-04-25T05:57:00.290Z,19.43
2018-04-25T05:58:00.357Z,19.44
2018-04-25T05:59:00.136Z,19.44
2018-04-25T06:00:00.412Z,19.45
2018-04-25T06:01:00.183Z,19.46
2018-04-25T06:02:00.122Z,19.45
2018-04-25T06:03:00.173Z,19.43
2018-04-25T06:04:00.139Z,19.43
2018-04-25T06:05:00.475Z,19.44
2018-04-25T06:06:00.106Z,19.43
2018-04-25T06:07:00.135Z,19.41
2018-04-25T06:08:00.425Z,19.43
2018-04-25T06:09:00.311Z,19.41
2018-04-25T06:10:00.155Z,19.41
2018-04-25T06:11:00.133Z,19.43
2018-04-25T06:12:00.204Z,19.41
2018-04-25T06:13:00.255Z,19.39
2018-04-25T06:14:00.117Z,19.43
2018-04-25T06:15:00.202Z,19.39
2018-04-25T06:16:00.315Z,19.4
2018-04-25T06:17:00.229Z,19.42
2018-04-25T06:18:00.329Z,19.4
2018-04-25T06:19:00.159Z,19.4
2018-04-25T06:20:00.143Z,19.42
2018-04-25T06:21:00.149Z,19.39
2018-04-25T06:22:00.269Z,19.38
2018-04-25T06:23:00.208Z,19.42
2018-04-25T06:24:00.126Z,19.4
2018-04-25T06:25:00.259Z,19.39
2018-04-25T06:26:00.961Z,19.41
2018-04-25T06:27:00.207Z,19.39
2018-04-25T06:28:00.323Z,19.38
2018-04-25T06:29:00.219Z,19.41
2018-04-25T06:30:00.097Z,19.39
2018-04-25T06:31:00.133Z,19.39
2018-04-25T06:32:00.214Z,19.41
2018-04-25T06:33:00.136Z,19.39
2018-04-25T06:34:00.367Z,19.38
2018-04-25T06:35:00.155Z,19.42
2018-04-25T06:36:00.279Z,19.39
2018-04-25T06:37:00.302Z,19.38
2018-04-25T06:38:00.308Z,19.41
2018-04-25T06:39:00.310Z,19.39
2018-04-25T06:40:00.569Z,19.38
2018-04-25T06:41:00.160Z,19.41
2018-04-25T06:42:00.230Z,19.38
2018-04-25T06:43:00.236Z,19.38
2018-04-25T06:44:00.304Z,19.4
2018-04-25T06:45:00.270Z,19.39
2018-04-25T06:46:00.242Z,19.39
2018-04-25T06:47:00.229Z,19.41
2018-04-25T06:48:00.278Z,19.39
2018-04-25T06:49:00.294Z,19.38
2018-04-25T06:50:00.145Z,19.41
2018-04-25T06:51:00.323Z,19.38
2018-04-25T06:52:00.157Z,19.38
2018-04-25T06:53:00.199Z,19.41
2018-04-25T06:54:00.178Z,19.37
2018-04-25T06:55:00.616Z,19.38
2018-04-25T06:56:00.136Z,19.41
2018-04-25T06:57:00.310Z,19.38
2018-04-25T06:58:00.135Z,19.37
2018-04-25T06:59:00.113Z,19.4
2018-04-25T07:00:00.308Z,19.38
2018-04-25T07:01:00.298Z,19.36
2018-04-25T07:02:00.131Z,19.4
2018-04-25T07:03:00.394Z,19.37
2018-04-25T07:04:00.170Z,19.38
2018-04-25T07:05:00.123Z,19.4
2018-04-25T07:06:00.300Z,19.37
2018-04-25T07:07:00.171Z,19.37
2018-04-25T07:08:00.261Z,19.38
2018-04-25T07:09:00.290Z,19.37
2018-04-25T07:10:00.251Z,19.36
2018-04-25T07:11:00.266Z,19.39
2018-04-25T07:12:00.109Z,19.37
2018-04-25T07:13:00.119Z,19.36
2018-04-25T07:14:00.349Z,19.4
2018-04-25T07:15:00.239Z,19.37
2018-04-25T07:16:00.101Z,19.38
2018-04-25T07:17:00.212Z,19.4
2018-04-25T07:18:00.314Z,19.38
2018-04-25T07:19:00.224Z,19.37
2018-04-25T07:20:00.060Z,19.4
2018-04-25T07:21:00.050Z,19.37
2018-04-25T07:22:00.167Z,19.36
2018-04-25T07:23:00.217Z,19.4
2018-04-25T07:24:00.099Z,19.38
2018-04-25T07:25:00.384Z,19.37
2018-04-25T07:26:00.106Z,19.39
2018-04-25T07:27:00.196Z,19.37
2018-04-25T07:28:00.103Z,19.39
2018-04-25T07:29:00.231Z,19.39
2018-04-25T07:30:00.129Z,19.37
2018-04-25T07:31:00.126Z,19.35
2018-04-25T07:32:00.326Z,19.38
2018-04-25T07:33:00.300Z,19.38
2018-04-25T07:34:00.183Z,19.36
2018-04-25T07:35:00.250Z,19.38
2018-04-25T07:36:00.273Z,19.36
2018-04-25T07:37:00.112Z,19.36
2018-04-25T07:38:00.236Z,19.39
2018-04-25T07:39:00.143Z,19.37
2018-04-25T07:40:00.334Z,19.35
2018-04-25T07:41:00.281Z,19.38
2018-04-25T07:42:00.377Z,19.35
2018-04-25T07:43:00.234Z,19.37
2018-04-25T07:44:00.349Z,19.38
2018-04-25T07:45:00.322Z,19.35
2018-04-25T07:46:02.119Z,19.35
2018-04-25T07:47:00.232Z,19.37
2018-04-25T07:48:00.285Z,19.36
2018-04-25T07:49:00.188Z,19.35
2018-04-25T07:50:00.432Z,19.38
2018-04-25T07:51:00.335Z,19.35
2018-04-25T07:52:00.193Z,19.35
2018-04-25T07:53:00.175Z,19.38
2018-04-25T07:54:00.196Z,19.35
2018-04-25T07:55:00.350Z,19.35
2018-04-25T07:56:00.258Z,19.38
2018-04-25T07:57:00.264Z,19.35
2018-04-25T07:58:00.350Z,19.34
2018-04-25T07:59:00.298Z,19.36
2018-04-25T08:00:00.177Z,19.35
2018-04-25T08:01:00.414Z,19.34
2018-04-25T08:02:00.293Z,19.38
2018-04-25T08:03:00.211Z,19.36
2018-04-25T08:04:00.231Z,19.35
2018-04-25T08:05:00.116Z,19.37
2018-04-25T08:06:00.335Z,19.35
2018-04-25T08:07:00.317Z,19.35
2018-04-25T08:08:00.159Z,19.38
2018-04-25T08:09:00.484Z,19.35
2018-04-25T08:10:00.190Z,19.35
2018-04-25T08:11:00.195Z,19.37
2018-04-25T08:12:00.378Z,19.35
2018-04-25T08:13:00.186Z,19.35
2018-04-25T08:14:00.280Z,19.38
2018-04-25T08:15:00.287Z,19.35
2018-04-25T08:16:00.314Z,19.35
2018-04-25T08:17:00.146Z,19.38
2018-04-25T08:18:00.262Z,19.35
2018-04-25T08:19:00.332Z,19.35
2018-04-25T08:20:00.150Z,19.38
2018-04-25T08:21:00.226Z,19.35
2018-04-25T08:22:00.313Z,19.35
2018-04-25T08:23:00.257Z,19.39
2018-04-25T08:24:00.264Z,19.37
2018-04-25T08:25:00.173Z,19.35
2018-04-25T08:26:00.214Z,19.38
2018-04-25T08:27:00.227Z,19.34
2018-04-25T08:28:00.148Z,19.35
2018-04-25T08:29:00.170Z,19.38
2018-04-25T08:30:00.048Z,19.35
2018-04-25T08:31:00.227Z,19.34
2018-04-25T08:32:00.108Z,19.38
2018-04-25T08:33:00.250Z,19.35
2018-04-25T08:34:00.078Z,19.35
2018-04-25T08:35:00.269Z,19.38
2018-04-25T08:36:00.049Z,19.34
2018-04-25T08:37:00.274Z,19.35
2018-04-25T08:38:00.207Z,19.38
2018-04-25T08:39:00.204Z,19.35
2018-04-25T08:40:00.253Z,19.33
2018-04-25T08:41:00.261Z,19.38
2018-04-25T08:42:00.079Z,19.35
2018-04-25T08:43:00.125Z,19.35
2018-04-25T08:44:00.281Z,19.38
2018-04-25T08:45:00.082Z,19.36
2018-04-25T08:46:00.113Z,19.34
2018-04-25T08:47:00.149Z,19.37
2018-04-25T08:48:00.328Z,19.36
2018-04-25T08:49:00.160Z,19.34
2018-04-25T08:50:00.245Z,19.37
2018-04-25T08:51:00.277Z,19.35
2018-04-25T08:52:00.278Z,19.35
2018-04-25T08:53:00.272Z,19.38
2018-04-25T08:54:00.249Z,19.35
2018-04-25T08:55:02.063Z,19.33
2018-04-25T08:56:00.056Z,19.36
2018-04-25T08:57:00.202Z,19.35
2018-04-25T08:58:00.265Z,19.34
2018-04-25T08:59:00.076Z,19.37
2018-04-25T09:00:00.211Z,19.35
2018-04-25T09:01:00.314Z,19.34
2018-04-25T09:02:00.112Z,19.36
2018-04-25T09:03:00.231Z,19.35
2018-04-25T09:04:00.320Z,19.35
2018-04-25T09:05:00.383Z,19.37
2018-04-25T09:06:00.086Z,19.35
2018-04-25T09:07:00.310Z,19.34
2018-04-25T09:08:00.047Z,19.38
2018-04-25T09:09:00.207Z,19.35
2018-04-25T09:10:00.293Z,19.34
2018-04-25T09:11:00.113Z,19.37
2018-04-25T09:12:00.221Z,19.34
2018-04-25T09:13:00.299Z,19.34
2018-04-25T09:14:00.173Z,19.37
2018-04-25T09:15:00.091Z,19.35
2018-04-25T09:16:00.066Z,19.35
2018-04-25T09:17:00.207Z,19.36
2018-04-25T09:18:00.089Z,19.35
2018-04-25T09:19:00.105Z,19.33
2018-04-25T09:20:00.221Z,19.37
2018-04-25T09:21:00.273Z,19.34
2018-04-25T09:22:00.081Z,19.34
2018-04-25T09:23:00.248Z,19.36
2018-04-25T09:24:00.186Z,19.35
2018-04-25T09:25:00.099Z,19.34
2018-04-25T09:26:00.163Z,19.36
2018-04-25T09:27:00.110Z,19.34
2018-04-25T09:28:00.136Z,19.34
2018-04-25T09:29:00.337Z,19.36
2018-04-25T09:30:00.238Z,19.34
2018-04-25T09:31:00.203Z,19.34
2018-04-25T09:32:00.211Z,19.36
2018-04-25T09:33:00.062Z,19.34
2018-04-25T09:34:00.205Z,19.33
2018-04-25T09:35:00.258Z,19.36
2018-04-25T09:36:00.322Z,19.33
2018-04-25T09:37:00.308Z,19.34
2018-04-25T09:38:00.266Z,19.36
2018-04-25T09:39:00.193Z,19.34
2018-04-25T09:40:00.180Z,19.34
2018-04-25T09:41:00.210Z,19.37
2018-04-25T09:42:00.159Z,19.34
2018-04-25T09:43:00.264Z,19.34
2018-04-25T09:44:00.038Z,19.37
2018-04-25T09:45:00.038Z,19.35
2018-04-25T09:46:00.369Z,19.33
2018-04-25T09:47:00.048Z,19.36
2018-04-25T09:48:00.050Z,19.33
2018-04-25T09:49:00.164Z,19.34
2018-04-25T09:50:00.187Z,19.36
2018-04-25T09:51:00.463Z,19.34
2018-04-25T09:52:00.101Z,19.34
2018-04-25T09:53:00.244Z,19.36
2018-04-25T09:54:00.257Z,19.34
2018-04-25T09:55:00.197Z,19.33
2018-04-25T09:56:00.147Z,19.36
2018-04-25T09:57:00.186Z,19.33
2018-04-25T09:58:00.109Z,19.33
2018-04-25T09:59:00.050Z,19.36
2018-04-25T10:00:00.204Z,19.34
2018-04-25T10:01:00.035Z,19.33
2018-04-25T10:02:00.170Z,19.36
2018-04-25T10:03:00.119Z,19.33
2018-04-25T10:04:00.166Z,19.33
2018-04-25T10:05:00.136Z,19.36
2018-04-25T10:06:00.428Z,19.33
2018-04-25T10:07:00.172Z,19.33
2018-04-25T10:08:00.204Z,19.36
2018-04-25T10:09:00.075Z,19.34
2018-04-25T10:10:00.129Z,19.33
2018-04-25T10:11:00.240Z,19.36
2018-04-25T10:12:00.182Z,19.34
2018-04-25T10:13:00.219Z,19.33
2018-04-25T10:14:00.071Z,19.35
2018-04-25T10:15:00.104Z,19.34
2018-04-25T10:16:00.298Z,19.33
2018-04-25T10:17:00.383Z,19.35
2018-04-25T10:18:00.033Z,19.32
2018-04-25T10:19:00.105Z,19.33
2018-04-25T10:20:00.151Z,19.36
2018-04-25T10:21:00.229Z,19.33
2018-04-25T10:22:00.173Z,19.33
2018-04-25T10:23:00.069Z,19.36
2018-04-25T10:24:00.226Z,19.34
2018-04-25T10:25:00.102Z,19.32
2018-04-25T10:26:00.218Z,19.36
2018-04-25T10:27:00.254Z,19.32
2018-04-25T10:28:00.266Z,19.32
2018-04-25T10:29:00.210Z,19.36
2018-04-25T10:30:00.219Z,19.33
2018-04-25T10:31:00.078Z,19.33
2018-04-25T10:32:00.160Z,19.35
2018-04-25T10:33:00.034Z,19.33
2018-04-25T10:34:00.238Z,19.32
2018-04-25T10:35:00.267Z,19.35
2018-04-25T10:36:00.216Z,19.34
2018-04-25T10:37:00.174Z,19.32
2018-04-25T10:38:00.318Z,19.35
2018-04-25T10:39:00.216Z,19.32
2018-04-25T10:40:00.064Z,19.32
2018-04-25T10:41:00.221Z,19.34
2018-04-25T10:42:00.132Z,19.32
2018-04-25T10:43:00.204Z,19.32
2018-04-25T10:44:00.131Z,19.34
2018-04-25T10:45:00.118Z,19.32
2018-04-25T10:46:00.149Z,19.32
2018-04-25T10:47:00.221Z,19.34
2018-04-25T10:48:00.026Z,19.32
2018-04-25T10:49:00.238Z,19.32
2018-04-25T10:50:00.194Z,19.34
2018-04-25T10:51:00.275Z,19.33
2018-04-25T10:52:00.100Z,19.32
2018-04-25T10:53:00.201Z,19.35
2018-04-25T10:54:00.117Z,19.33
2018-04-25T10:55:00.100Z,19.33
2018-04-25T10:56:00.317Z,19.35
2018-04-25T10:57:00.256Z,19.32
2018-04-25T10:58:00.149Z,19.32
2018-04-25T10:59:00.243Z,19.34
2018-04-25T11:00:00.239Z,19.33
2018-04-25T11:01:00.037Z,19.32
2018-04-25T11:02:00.077Z,19.34
2018-04-25T11:03:00.140Z,19.33
2018-04-25T11:04:00.208Z,19.33
2018-04-25T11:05:00.182Z,19.34
2018-04-25T11:06:00.029Z,19.32
2018-04-25T11:07:00.140Z,19.32
2018-04-25T11:08:00.212Z,19.35
2018-04-25T11:09:00.249Z,19.33
2018-04-25T11:10:00.222Z,19.32
2018-04-25T11:11:00.055Z,19.34
2018-04-25T11:12:00.016Z,19.32
2018-04-25T11:13:00.014Z,19.32
2018-04-25T11:14:00.099Z,19.34
2018-04-25T11:15:00.241Z,19.32
2018-04-25T11:16:00.115Z,19.32
2018-04-25T11:16:59.919Z,19.34
2018-04-25T11:18:00.073Z,19.32
2018-04-25T11:19:00.183Z,19.32
2018-04-25T11:20:00.153Z,19.34
2018-04-25T11:21:00.225Z,19.32
2018-04-25T11:22:00.234Z,19.32
2018-04-25T11:23:00.102Z,19.34
2018-04-25T11:24:00.132Z,19.32
2018-04-25T11:25:00.131Z,19.32
2018-04-25T11:26:00.136Z,19.35
2018-04-25T11:27:00.090Z,19.33
2018-04-25T11:28:00.161Z,19.32
2018-04-25T11:29:00.077Z,19.34
2018-04-25T11:30:00.110Z,19.32
2018-04-25T11:31:00.088Z,19.32
2018-04-25T11:32:00.144Z,19.34
2018-04-25T11:33:00.305Z,19.32
2018-04-25T11:34:00.170Z,19.32
2018-04-25T11:35:00.217Z,19.34
2018-04-25T11:36:00.241Z,19.32
2018-04-25T11:37:00.153Z,19.31
2018-04-25T11:38:02.249Z,19.34
2018-04-25T11:39:00.182Z,19.33
2018-04-25T11:40:00.200Z,19.32
2018-04-25T11:41:00.049Z,19.37
2018-04-25T11:42:00.153Z,19.37
2018-04-25T11:43:00.103Z,19.37
2018-04-25T11:44:00.063Z,19.41
2018-04-25T11:45:00.254Z,19.4
2018-04-25T11:46:00.196Z,19.4
2018-04-25T11:47:00.265Z,19.43
2018-04-25T11:48:00.420Z,19.43
2018-04-25T11:49:00.207Z,19.41
2018-04-25T11:50:00.051Z,19.47
2018-04-25T11:51:00.083Z,19.46
2018-04-25T11:52:00.212Z,19.43
2018-04-25T11:53:00.119Z,19.46
2018-04-25T11:54:00.057Z,19.45
2018-04-25T11:55:00.232Z,19.42
2018-04-25T11:56:00.219Z,19.44
2018-04-25T11:57:00.078Z,19.42
2018-04-25T11:58:00.134Z,19.42
2018-04-25T11:59:00.024Z,19.44
2018-04-25T12:00:00.145Z,19.41
2018-04-25T12:01:00.042Z,19.43
2018-04-25T12:02:00.262Z,19.45
2018-04-25T12:03:00.055Z,19.44
2018-04-25T12:04:00.307Z,19.42
2018-04-25T12:05:00.279Z,19.44
2018-04-25T12:06:00.121Z,19.42
2018-04-25T12:07:00.271Z,19.42
2018-04-25T12:08:00.052Z,19.43
2018-04-25T12:09:00.079Z,19.41
2018-04-25T12:10:00.105Z,19.41
2018-04-25T12:11:00.077Z,19.42
2018-04-25T12:12:00.071Z,19.42
2018-04-25T12:13:00.178Z,19.41
2018-04-25T12:14:00.218Z,19.42
2018-04-25T12:15:00.027Z,19.41
2018-04-25T12:16:00.211Z,19.4
2018-04-25T12:17:00.025Z,19.42
2018-04-25T12:18:00.465Z,19.4
2018-04-25T12:19:00.172Z,19.4
2018-04-25T12:20:00.128Z,19.42
2018-04-25T12:20:59.963Z,19.4
2018-04-25T12:22:00.005Z,19.4
2018-04-25T12:23:00.078Z,19.42
2018-04-25T12:24:00.186Z,19.4
2018-04-25T12:25:00.101Z,19.39
2018-04-25T12:26:00.127Z,19.41
2018-04-25T12:27:00.187Z,19.39
2018-04-25T12:27:59.931Z,19.39
2018-04-25T12:29:00.296Z,19.4
2018-04-25T12:30:00.165Z,19.38
2018-04-25T12:31:00.123Z,19.39
2018-04-25T12:32:00.283Z,19.4
2018-04-25T12:33:00.235Z,19.38
2018-04-25T12:34:00.268Z,19.39
2018-04-25T12:35:00.213Z,19.4
2018-04-25T12:36:00.005Z,19.38
2018-04-25T12:37:00.027Z,19.37
2018-04-25T12:38:00.205Z,19.4
2018-04-25T12:39:00.241Z,19.38
2018-04-25T12:40:00.052Z,19.38
2018-04-25T12:41:00.228Z,19.4
2018-04-25T12:42:00.154Z,19.38
2018-04-25T12:43:00.118Z,19.38
2018-04-25T12:44:00.172Z,19.39
2018-04-25T12:45:00.155Z,19.37
2018-04-25T12:46:00.316Z,19.37
2018-04-25T12:47:00.242Z,19.39
2018-04-25T12:48:00.229Z,19.37
2018-04-25T12:49:00.201Z,19.37
2018-04-25T12:50:00.217Z,19.39
2018-04-25T12:51:00.154Z,19.37
2018-04-25T12:52:00.277Z,19.36
2018-04-25T12:52:59.965Z,19.39
2018-04-25T12:54:00.166Z,19.38